x

Port Colborne (45142) Wave Buoy

8:00pm - Wed 31st Aug 2016 All times are CDT. -5 hours from GMT.

  • Sig Wave height 1.3ft
  • Peak Period 4s
  • Wind
    18mph, 22mph gusts
  • Sea Temp 76°f
  • Air Temp 73°f
  • Sea Pressure 1013.2mb
  • Port Colborne
  • Port Colborne

More Historic Weather Station data

Upgrade to MSW Pro to gain access to the past 30 days of data for over 8000 Wavebouys and Weather Stations around the globe.

Join Pro

Comparision Forecast

View Surf forecast
   
Wed 08/31 8:00pm 1.3ft 4s 18 22 mph 1013.2mb 76f 73f
7:00pm 1.3ft 4s 11 13 mph 1012.3mb 77f 76f
5:00pm 1.6ft 4s 9 11 mph 1011.9mb 77f 74f
4:00pm 1.6ft 4s 13 27 mph 1012.1mb 77f 72f
3:00pm 1.3ft 4s 16 18 mph 1011.9mb 77f 75f
2:00pm 1.3ft 4s 11 13 mph 1012.6mb 77f 74f
1:00pm 1.6ft 4s 11 13 mph 1013.1mb 77f 73f
12:00pm 1.6ft 3s 13 16 mph 1013.3mb 77f 73f
11:00am 1.3ft 3s 13 16 mph 1013.8mb 76f 73f
10:00am 1.3ft 3s 13 16 mph 1014.3mb 76f 73f
9:00am 1.3ft 3s 13 18 mph 1014.4mb 76f 72f
8:00am 1ft 3s 13 16 mph 1014mb 76f 73f
7:00am 1ft 3s 4 9 mph 1014.9mb 76f 70f
6:00am 1ft 3s 11 13 mph 1014.3mb 77f 76f
5:00am 1ft 3s 13 16 mph 1014mb 77f 77f
4:00am 1ft 3s 11 13 mph 1014.4mb 77f 76f
3:00am 1ft 3s 7 9 mph 1014.9mb 77f 75f
2:00am 0.7ft 3s 9 11 mph 1015.3mb 77f 76f
1:00am 0.7ft 3s 11 13 mph 1015.3mb 77f 75f
12:00am 1ft 3s 9 11 mph 1015.7mb 77f 76f
Tue 08/30 11:00pm 1ft 4s 9 11 mph 1016.2mb 77f 76f
10:00pm 1ft 4s 7 9 mph 1016.7mb 77f 76f
9:00pm 1ft 4s 7 9 mph 1016.9mb 77f 76f
8:00pm 1ft 3s 9 11 mph 1017.1mb 77f 76f
7:00pm 1ft 3s 9 11 mph 1017mb 77f 76f
6:00pm 1ft 3s 9 11 mph 1017.2mb 77f 76f
5:00pm 1ft 3s 11
mph
1017.5mb 77f 76f
4:00pm 1ft 3s 11 13 mph 1017.8mb 77f 76f
3:00pm 1ft 3s 13 16 mph 1018.3mb 77f 76f
2:00pm 1ft 3s 13
mph
1019mb 78f 75f
1:00pm 1ft 3s 13 16 mph 1019.6mb 78f 75f
12:00pm 0.7ft 3s 11 13 mph 1020.2mb 78f 75f
11:00am 0.7ft 3s 11 13 mph 1020.8mb 78f 74f
10:00am 1ft 3s 11 13 mph 1021mb 77f 74f
9:00am 1ft 3s 9 11 mph 1021.4mb 77f 73f
8:00am 1ft 2s 9 11 mph 1021.4mb 77f 73f
7:00am 0.7ft 2s 9 13 mph 1021.5mb 77f 73f
6:00am 0.7ft 2s 11
mph
1021.4mb 77f 72f
5:00am 0.7ft 2s 9 11 mph 1021.6mb 76f 72f
4:00am 0.3ft 2s 9 11 mph 1021.7mb 77f 72f
3:00am 0.3ft 4s 9 11 mph 1021.9mb 77f 72f
2:00am 0.3ft 2s 9
mph
1021.8mb 77f 72f
1:00am 0.3ft 4s 4 7 mph 1021.9mb 77f 74f
12:00am 0.3ft 4s 7
mph
1022.1mb 77f 74f
Mon 08/29 11:00pm  -  2s 2
mph
1022.1mb 77f 75f
10:00pm  -  2s 2
mph
1022.6mb 77f 76f
9:00pm 0.3ft 2s 2
mph
1022.8mb 77f 76f
8:00pm 0.3ft 4s  -  mph 1022.8mb 78f 75f
7:00pm 0.3ft 3s 2 4 mph 1022.3mb 78f 76f
6:00pm 0.3ft 3s 4 7 mph 1021.9mb 78f 76f
5:00pm 0.3ft 3s 4 7 mph 1022.4mb 78f 77f
4:00pm 0.3ft 2s 7
mph
1022.6mb 78f 76f
3:00pm 0.3ft 3s 7 9 mph 1023mb 79f 75f
2:00pm 0.3ft 4s 4 7 mph 1023.5mb 79f 75f
1:00pm 0.3ft 3s 7
mph
1024mb 79f 74f
12:00pm 0.3ft 4s 4 7 mph 1024.4mb 79f 73f
11:00am 0.3ft 2s 2 4 mph 1024.7mb 78f 73f
10:00am 0.3ft 2s 4 7 mph 1024.6mb 77f 72f
9:00am 0.7ft 2s 4 7 mph 1024.8mb 77f 71f
8:00am 0.7ft 2s 4
mph
1024.3mb 76f 70f
7:00am 0.7ft 2s 9 11 mph 1024.2mb 76f 70f
6:00am 0.7ft 2s 11 13 mph 1024mb 76f 69f
5:00am 0.7ft 2s 9 11 mph 1023.4mb 76f 70f
4:00am 1ft 2s 13 16 mph 1022.9mb 76f 70f
3:00am 0.7ft 2s 13 16 mph 1022.7mb 76f 71f
2:00am 1ft 2s 13 16 mph 1022.5mb 76f 72f
1:00am 1ft 3s 16 20 mph 1022mb 76f 73f
12:00am 1.3ft 3s 16 18 mph 1022.3mb 77f 74f
Sun 08/28 11:00pm 1ft 3s 18 20 mph 1022mb 77f 75f
10:00pm 1ft 4s 13 18 mph 1021.8mb 77f 77f
9:00pm 1.3ft 4s 7 9 mph 1021.4mb 77f 78f
8:00pm 1.3ft 4s 9 11 mph 1020.9mb 77f 78f
7:00pm 1.3ft 4s 9 11 mph 1020.2mb 77f 77f
6:00pm 1.3ft 4s 7 9 mph 1020.1mb 77f 77f
5:00pm 1.3ft 4s 9 11 mph 1019.6mb 78f 78f
4:00pm 1.6ft 4s 11 13 mph 1020.6mb 78f 78f
3:00pm 2ft 3s 16 20 mph 1020.2mb 78f 77f
2:00pm 1.6ft 4s 16 20 mph 1020.7mb 78f 77f
1:00pm 1.6ft 3s 16 18 mph 1021.2mb 78f 77f
12:00pm 1.6ft 3s 13 16 mph 1021.4mb 78f 77f
11:00am 1.3ft 4s 13 16 mph 1021.6mb 77f 76f
10:00am 1.3ft 3s 11 13 mph 1021.7mb 77f 77f
9:00am 1.6ft 4s 11 13 mph 1021.6mb 77f 77f
8:00am 2ft 4s 13 18 mph 1021.2mb 76f 77f
7:00am 1.6ft 4s 16 18 mph 1020.9mb 76f 77f
6:00am 1.3ft 3s 18 20 mph 1020.6mb 76f 77f
5:00am 1ft 3s 13
mph
1020.2mb 76f 77f
4:00am 0.7ft 2s 11 16 mph 1019.6mb 76f 78f